sensor_id;sensor_type;location;lat;lon;timestamp;P1;durP1;ratioP1;P2;durP2;ratioP2
14510;SDS011;7341;50.930;4.038;2023-02-15T00:01:37;90.00;;;51.13;;
14510;SDS011;7341;50.930;4.038;2023-02-15T00:04:04;91.00;;;50.07;;
14510;SDS011;7341;50.930;4.038;2023-02-15T00:06:34;84.67;;;47.97;;
14510;SDS011;7341;50.930;4.038;2023-02-15T00:09:01;88.83;;;49.00;;
14510;SDS011;7341;50.930;4.038;2023-02-15T00:11:28;78.00;;;47.83;;
14510;SDS011;7341;50.930;4.038;2023-02-15T00:14:11;87.53;;;48.23;;
14510;SDS011;7341;50.930;4.038;2023-02-15T00:16:41;85.20;;;49.13;;
14510;SDS011;7341;50.930;4.038;2023-02-15T00:19:10;83.80;;;48.43;;
14510;SDS011;7341;50.930;4.038;2023-02-15T00:21:40;85.37;;;49.40;;
14510;SDS011;7341;50.930;4.038;2023-02-15T00:24:17;85.57;;;47.57;;
14510;SDS011;7341;50.930;4.038;2023-02-15T00:26:48;88.00;;;48.77;;
14510;SDS011;7341;50.930;4.038;2023-02-15T00:29:16;87.53;;;48.40;;
14510;SDS011;7341;50.930;4.038;2023-02-15T00:31:44;99.85;;;59.95;;
14510;SDS011;7341;50.930;4.038;2023-02-15T00:34:13;90.30;;;52.30;;
14510;SDS011;7341;50.930;4.038;2023-02-15T00:36:49;90.90;;;49.83;;
14510;SDS011;7341;50.930;4.038;2023-02-15T00:39:17;101.77;;;52.43;;
14510;SDS011;7341;50.930;4.038;2023-02-15T00:41:44;96.13;;;51.97;;
14510;SDS011;7341;50.930;4.038;2023-02-15T00:44:12;97.27;;;51.33;;
14510;SDS011;7341;50.930;4.038;2023-02-15T00:46:41;100.03;;;53.87;;
14510;SDS011;7341;50.930;4.038;2023-02-15T00:49:08;101.20;;;54.53;;
14510;SDS011;7341;50.930;4.038;2023-02-15T00:51:36;100.90;;;54.93;;
14510;SDS011;7341;50.930;4.038;2023-02-15T00:54:08;99.90;;;54.97;;
14510;SDS011;7341;50.930;4.038;2023-02-15T00:56:35;96.87;;;51.67;;
14510;SDS011;7341;50.930;4.038;2023-02-15T00:59:03;103.73;;;53.43;;
14510;SDS011;7341;50.930;4.038;2023-02-15T01:01:31;114.40;;;68.15;;
14510;SDS011;7341;50.930;4.038;2023-02-15T01:03:58;98.07;;;56.07;;
14510;SDS011;7341;50.930;4.038;2023-02-15T01:06:27;102.70;;;55.90;;
14510;SDS011;7341;50.930;4.038;2023-02-15T01:08:55;104.30;;;55.33;;
14510;SDS011;7341;50.930;4.038;2023-02-15T01:11:23;107.47;;;56.50;;
14510;SDS011;7341;50.930;4.038;2023-02-15T01:13:50;104.10;;;56.63;;
14510;SDS011;7341;50.930;4.038;2023-02-15T01:16:19;101.77;;;55.43;;
14510;SDS011;7341;50.930;4.038;2023-02-15T01:18:46;102.80;;;56.47;;
14510;SDS011;7341;50.930;4.038;2023-02-15T01:21:15;101.03;;;54.70;;
14510;SDS011;7341;50.930;4.038;2023-02-15T01:23:43;98.67;;;53.13;;
14510;SDS011;7341;50.930;4.038;2023-02-15T01:26:11;97.37;;;54.93;;
14510;SDS011;7341;50.930;4.038;2023-02-15T01:28:40;99.97;;;52.67;;
14510;SDS011;7341;50.930;4.038;2023-02-15T01:31:07;110.67;;;63.87;;
14510;SDS011;7341;50.930;4.038;2023-02-15T01:33:37;101.37;;;56.43;;
14510;SDS011;7341;50.930;4.038;2023-02-15T01:36:06;96.13;;;53.57;;
14510;SDS011;7341;50.930;4.038;2023-02-15T01:38:34;92.40;;;51.67;;
14510;SDS011;7341;50.930;4.038;2023-02-15T01:41:01;90.23;;;50.77;;
14510;SDS011;7341;50.930;4.038;2023-02-15T01:43:45;80.87;;;49.17;;
14510;SDS011;7341;50.930;4.038;2023-02-15T01:46:14;90.33;;;49.07;;
14510;SDS011;7341;50.930;4.038;2023-02-15T01:48:43;88.63;;;48.70;;
14510;SDS011;7341;50.930;4.038;2023-02-15T01:51:15;91.23;;;50.10;;
14510;SDS011;7341;50.930;4.038;2023-02-15T01:53:46;87.60;;;49.80;;
14510;SDS011;7341;50.930;4.038;2023-02-15T01:56:17;91.03;;;49.37;;
14510;SDS011;7341;50.930;4.038;2023-02-15T01:58:49;92.17;;;50.03;;
14510;SDS011;7341;50.930;4.038;2023-02-15T02:01:23;85.57;;;47.47;;
14510;SDS011;7341;50.930;4.038;2023-02-15T02:03:54;89.20;;;49.83;;
14510;SDS011;7341;50.930;4.038;2023-02-15T02:06:26;89.33;;;49.00;;
14510;SDS011;7341;50.930;4.038;2023-02-15T02:08:56;93.13;;;50.43;;
14510;SDS011;7341;50.930;4.038;2023-02-15T02:11:24;90.27;;;50.00;;
14510;SDS011;7341;50.930;4.038;2023-02-15T02:13:52;93.57;;;48.90;;
14510;SDS011;7341;50.930;4.038;2023-02-15T02:16:22;85.13;;;49.47;;
14510;SDS011;7341;50.930;4.038;2023-02-15T02:18:58;87.17;;;47.83;;
14510;SDS011;7341;50.930;4.038;2023-02-15T02:22:01;85.17;;;48.70;;
14510;SDS011;7341;50.930;4.038;2023-02-15T02:24:52;82.40;;;47.73;;
14510;SDS011;7341;50.930;4.038;2023-02-15T02:27:29;91.57;;;49.37;;
14510;SDS011;7341;50.930;4.038;2023-02-15T02:36:22;84.47;;;47.53;;
14510;SDS011;7341;50.930;4.038;2023-02-15T02:39:02;84.30;;;48.40;;
14510;SDS011;7341;50.930;4.038;2023-02-15T02:41:50;85.70;;;48.07;;
14510;SDS011;7341;50.930;4.038;2023-02-15T02:44:23;86.63;;;48.37;;
14510;SDS011;7341;50.930;4.038;2023-02-15T02:46:54;80.97;;;46.97;;
14510;SDS011;7341;50.930;4.038;2023-02-15T02:49:30;89.73;;;48.87;;
14510;SDS011;7341;50.930;4.038;2023-02-15T02:51:59;92.73;;;52.13;;
14510;SDS011;7341;50.930;4.038;2023-02-15T02:54:28;87.63;;;48.80;;
14510;SDS011;7341;50.930;4.038;2023-02-15T02:56:56;85.43;;;50.13;;
14510;SDS011;7341;50.930;4.038;2023-02-15T02:59:29;100.28;;;56.72;;
14510;SDS011;7341;50.930;4.038;2023-02-15T03:01:59;95.80;;;53.20;;
14510;SDS011;7341;50.930;4.038;2023-02-15T03:04:34;101.27;;;54.93;;
14510;SDS011;7341;50.930;4.038;2023-02-15T03:07:04;97.83;;;53.87;;
14510;SDS011;7341;50.930;4.038;2023-02-15T03:09:35;98.33;;;51.30;;
14510;SDS011;7341;50.930;4.038;2023-02-15T03:12:07;103.43;;;53.57;;
14510;SDS011;7341;50.930;4.038;2023-02-15T03:14:36;99.53;;;52.63;;
14510;SDS011;7341;50.930;4.038;2023-02-15T03:17:05;97.97;;;52.73;;
14510;SDS011;7341;50.930;4.038;2023-02-15T03:19:38;101.37;;;53.17;;
14510;SDS011;7341;50.930;4.038;2023-02-15T03:22:07;91.30;;;50.33;;
14510;SDS011;7341;50.930;4.038;2023-02-15T03:24:39;92.80;;;50.10;;
14510;SDS011;7341;50.930;4.038;2023-02-15T03:27:09;90.97;;;50.87;;
14510;SDS011;7341;50.930;4.038;2023-02-15T03:29:42;89.37;;;49.13;;
14510;SDS011;7341;50.930;4.038;2023-02-15T03:32:10;94.97;;;51.73;;
14510;SDS011;7341;50.930;4.038;2023-02-15T03:34:42;91.17;;;51.13;;
14510;SDS011;7341;50.930;4.038;2023-02-15T03:37:10;91.37;;;51.40;;
14510;SDS011;7341;50.930;4.038;2023-02-15T03:39:42;85.40;;;49.73;;
14510;SDS011;7341;50.930;4.038;2023-02-15T03:42:16;94.17;;;49.73;;
14510;SDS011;7341;50.930;4.038;2023-02-15T03:44:49;89.87;;;48.07;;
14510;SDS011;7341;50.930;4.038;2023-02-15T03:47:23;93.33;;;50.30;;
14510;SDS011;7341;50.930;4.038;2023-02-15T03:49:55;88.03;;;47.53;;
14510;SDS011;7341;50.930;4.038;2023-02-15T03:52:26;82.97;;;47.07;;
14510;SDS011;7341;50.930;4.038;2023-02-15T03:54:55;92.57;;;48.70;;
14510;SDS011;7341;50.930;4.038;2023-02-15T03:57:23;89.87;;;49.93;;
14510;SDS011;7341;50.930;4.038;2023-02-15T04:00:11;86.67;;;46.70;;
14510;SDS011;7341;50.930;4.038;2023-02-15T04:03:12;88.83;;;47.00;;
14510;SDS011;7341;50.930;4.038;2023-02-15T04:05:50;90.33;;;48.67;;
14510;SDS011;7341;50.930;4.038;2023-02-15T04:08:17;89.17;;;48.97;;
14510;SDS011;7341;50.930;4.038;2023-02-15T04:10:44;96.33;;;48.33;;
14510;SDS011;7341;50.930;4.038;2023-02-15T04:13:20;89.53;;;49.13;;
14510;SDS011;7341;50.930;4.038;2023-02-15T04:15:47;92.27;;;49.13;;
14510;SDS011;7341;50.930;4.038;2023-02-15T04:18:29;101.97;;;48.63;;
14510;SDS011;7341;50.930;4.038;2023-02-15T04:21:15;85.70;;;46.30;;
14510;SDS011;7341;50.930;4.038;2023-02-15T04:24:00;94.13;;;48.00;;
14510;SDS011;7341;50.930;4.038;2023-02-15T04:26:44;89.50;;;47.73;;
14510;SDS011;7341;50.930;4.038;2023-02-15T04:29:12;94.03;;;47.33;;
14510;SDS011;7341;50.930;4.038;2023-02-15T04:31:40;92.77;;;48.67;;
14510;SDS011;7341;50.930;4.038;2023-02-15T04:34:08;88.50;;;47.67;;
14510;SDS011;7341;50.930;4.038;2023-02-15T04:36:36;88.00;;;49.63;;
14510;SDS011;7341;50.930;4.038;2023-02-15T04:39:03;90.63;;;48.80;;
14510;SDS011;7341;50.930;4.038;2023-02-15T04:41:31;92.73;;;47.70;;
14510;SDS011;7341;50.930;4.038;2023-02-15T04:43:58;92.13;;;48.47;;
14510;SDS011;7341;50.930;4.038;2023-02-15T04:46:25;91.00;;;48.23;;
14510;SDS011;7341;50.930;4.038;2023-02-15T04:48:52;90.90;;;48.73;;
14510;SDS011;7341;50.930;4.038;2023-02-15T04:51:19;88.77;;;47.90;;
14510;SDS011;7341;50.930;4.038;2023-02-15T04:53:48;102.47;;;50.27;;
14510;SDS011;7341;50.930;4.038;2023-02-15T04:56:17;91.43;;;50.43;;
14510;SDS011;7341;50.930;4.038;2023-02-15T04:58:45;92.87;;;48.07;;
14510;SDS011;7341;50.930;4.038;2023-02-15T05:01:13;89.83;;;50.23;;
14510;SDS011;7341;50.930;4.038;2023-02-15T05:03:39;88.33;;;49.00;;
14510;SDS011;7341;50.930;4.038;2023-02-15T05:06:06;92.33;;;48.37;;
14510;SDS011;7341;50.930;4.038;2023-02-15T05:08:33;100.07;;;51.97;;
14510;SDS011;7341;50.930;4.038;2023-02-15T05:11:01;91.90;;;49.33;;
14510;SDS011;7341;50.930;4.038;2023-02-15T05:13:28;92.60;;;50.00;;
14510;SDS011;7341;50.930;4.038;2023-02-15T05:15:55;92.03;;;49.63;;
14510;SDS011;7341;50.930;4.038;2023-02-15T05:18:22;102.90;;;50.10;;
14510;SDS011;7341;50.930;4.038;2023-02-15T05:20:48;103.20;;;52.77;;
14510;SDS011;7341;50.930;4.038;2023-02-15T05:23:15;99.40;;;50.13;;
14510;SDS011;7341;50.930;4.038;2023-02-15T05:25:46;94.53;;;48.63;;
14510;SDS011;7341;50.930;4.038;2023-02-15T05:28:33;114.47;;;60.70;;
14510;SDS011;7341;50.930;4.038;2023-02-15T05:31:02;102.77;;;53.40;;
14510;SDS011;7341;50.930;4.038;2023-02-15T05:33:31;104.00;;;50.13;;
14510;SDS011;7341;50.930;4.038;2023-02-15T05:35:58;92.07;;;49.87;;
14510;SDS011;7341;50.930;4.038;2023-02-15T05:38:25;100.90;;;49.97;;
14510;SDS011;7341;50.930;4.038;2023-02-15T05:40:52;95.97;;;50.53;;
14510;SDS011;7341;50.930;4.038;2023-02-15T05:43:19;89.87;;;49.33;;
14510;SDS011;7341;50.930;4.038;2023-02-15T05:45:47;99.30;;;50.30;;
14510;SDS011;7341;50.930;4.038;2023-02-15T05:48:16;96.77;;;48.90;;
14510;SDS011;7341;50.930;4.038;2023-02-15T05:50:44;96.97;;;49.40;;
14510;SDS011;7341;50.930;4.038;2023-02-15T05:53:11;96.57;;;48.50;;
14510;SDS011;7341;50.930;4.038;2023-02-15T05:55:39;100.30;;;48.97;;
14510;SDS011;7341;50.930;4.038;2023-02-15T05:58:07;94.23;;;47.87;;
14510;SDS011;7341;50.930;4.038;2023-02-15T06:00:34;96.87;;;50.67;;
14510;SDS011;7341;50.930;4.038;2023-02-15T06:03:02;98.70;;;47.60;;
14510;SDS011;7341;50.930;4.038;2023-02-15T06:05:29;97.87;;;49.60;;
14510;SDS011;7341;50.930;4.038;2023-02-15T06:07:56;97.67;;;50.40;;
14510;SDS011;7341;50.930;4.038;2023-02-15T06:10:22;95.70;;;48.23;;
14510;SDS011;7341;50.930;4.038;2023-02-15T06:12:49;92.57;;;47.90;;
14510;SDS011;7341;50.930;4.038;2023-02-15T06:15:17;103.13;;;50.20;;
14510;SDS011;7341;50.930;4.038;2023-02-15T06:17:44;94.37;;;48.30;;
14510;SDS011;7341;50.930;4.038;2023-02-15T06:20:13;92.03;;;47.20;;
14510;SDS011;7341;50.930;4.038;2023-02-15T06:22:41;91.10;;;45.77;;
14510;SDS011;7341;50.930;4.038;2023-02-15T06:25:08;93.43;;;46.13;;
14510;SDS011;7341;50.930;4.038;2023-02-15T06:27:36;102.15;;;57.22;;
14510;SDS011;7341;50.930;4.038;2023-02-15T06:30:04;90.47;;;48.90;;
14510;SDS011;7341;50.930;4.038;2023-02-15T06:32:32;91.50;;;45.63;;
14510;SDS011;7341;50.930;4.038;2023-02-15T06:35:00;90.57;;;47.43;;
14510;SDS011;7341;50.930;4.038;2023-02-15T06:37:30;92.87;;;44.73;;
14510;SDS011;7341;50.930;4.038;2023-02-15T06:39:58;88.23;;;45.83;;
14510;SDS011;7341;50.930;4.038;2023-02-15T06:42:29;96.73;;;45.07;;
14510;SDS011;7341;50.930;4.038;2023-02-15T06:44:56;82.03;;;42.60;;
14510;SDS011;7341;50.930;4.038;2023-02-15T06:47:25;92.60;;;43.77;;
14510;SDS011;7341;50.930;4.038;2023-02-15T06:49:52;83.53;;;43.93;;
14510;SDS011;7341;50.930;4.038;2023-02-15T06:52:19;87.67;;;44.33;;
14510;SDS011;7341;50.930;4.038;2023-02-15T06:54:48;87.37;;;42.57;;
14510;SDS011;7341;50.930;4.038;2023-02-15T06:57:15;88.95;;;45.05;;
14510;SDS011;7341;50.930;4.038;2023-02-15T06:59:42;126.70;;;45.60;;
14510;SDS011;7341;50.930;4.038;2023-02-15T07:02:10;109.30;;;44.43;;
14510;SDS011;7341;50.930;4.038;2023-02-15T07:04:39;90.33;;;44.70;;
14510;SDS011;7341;50.930;4.038;2023-02-15T07:07:07;121.03;;;46.53;;
14510;SDS011;7341;50.930;4.038;2023-02-15T07:09:35;107.13;;;46.10;;
14510;SDS011;7341;50.930;4.038;2023-02-15T07:12:04;93.50;;;46.13;;
14510;SDS011;7341;50.930;4.038;2023-02-15T07:14:48;83.17;;;43.87;;
14510;SDS011;7341;50.930;4.038;2023-02-15T07:17:16;92.47;;;44.93;;
14510;SDS011;7341;50.930;4.038;2023-02-15T07:19:44;83.73;;;45.27;;
14510;SDS011;7341;50.930;4.038;2023-02-15T07:22:12;87.40;;;45.23;;
14510;SDS011;7341;50.930;4.038;2023-02-15T07:24:39;87.67;;;45.63;;
14510;SDS011;7341;50.930;4.038;2023-02-15T07:27:07;83.10;;;45.77;;
14510;SDS011;7341;50.930;4.038;2023-02-15T07:29:34;81.43;;;43.07;;
14510;SDS011;7341;50.930;4.038;2023-02-15T07:32:01;84.80;;;45.37;;
14510;SDS011;7341;50.930;4.038;2023-02-15T07:34:28;84.83;;;43.33;;
14510;SDS011;7341;50.930;4.038;2023-02-15T07:36:55;75.17;;;42.63;;
14510;SDS011;7341;50.930;4.038;2023-02-15T07:39:22;78.50;;;42.33;;
14510;SDS011;7341;50.930;4.038;2023-02-15T07:41:50;87.47;;;45.53;;
14510;SDS011;7341;50.930;4.038;2023-02-15T07:44:19;83.83;;;44.10;;
14510;SDS011;7341;50.930;4.038;2023-02-15T07:46:45;81.33;;;44.03;;
14510;SDS011;7341;50.930;4.038;2023-02-15T07:49:13;88.37;;;42.73;;
14510;SDS011;7341;50.930;4.038;2023-02-15T07:51:41;76.23;;;43.70;;
14510;SDS011;7341;50.930;4.038;2023-02-15T07:54:08;77.97;;;42.27;;
14510;SDS011;7341;50.930;4.038;2023-02-15T07:56:34;83.70;;;43.53;;
14510;SDS011;7341;50.930;4.038;2023-02-15T07:59:03;99.07;;;60.23;;
14510;SDS011;7341;50.930;4.038;2023-02-15T08:01:33;82.63;;;46.07;;
14510;SDS011;7341;50.930;4.038;2023-02-15T08:04:02;78.23;;;42.17;;
14510;SDS011;7341;50.930;4.038;2023-02-15T08:06:32;73.70;;;41.87;;
14510;SDS011;7341;50.930;4.038;2023-02-15T08:09:00;86.83;;;43.97;;
14510;SDS011;7341;50.930;4.038;2023-02-15T08:11:30;78.03;;;42.43;;
14510;SDS011;7341;50.930;4.038;2023-02-15T08:14:05;74.33;;;40.83;;
14510;SDS011;7341;50.930;4.038;2023-02-15T08:16:36;77.37;;;41.83;;
14510;SDS011;7341;50.930;4.038;2023-02-15T08:19:05;81.43;;;41.47;;
14510;SDS011;7341;50.930;4.038;2023-02-15T08:21:35;69.93;;;40.80;;
14510;SDS011;7341;50.930;4.038;2023-02-15T08:24:03;75.53;;;40.37;;
14510;SDS011;7341;50.930;4.038;2023-02-15T08:26:31;75.73;;;40.53;;
14510;SDS011;7341;50.930;4.038;2023-02-15T08:28:59;78.82;;;48.80;;
14510;SDS011;7341;50.930;4.038;2023-02-15T08:31:28;67.77;;;40.30;;
14510;SDS011;7341;50.930;4.038;2023-02-15T08:33:58;64.10;;;39.33;;
14510;SDS011;7341;50.930;4.038;2023-02-15T08:36:26;64.90;;;37.00;;
14510;SDS011;7341;50.930;4.038;2023-02-15T08:38:54;65.83;;;37.67;;
14510;SDS011;7341;50.930;4.038;2023-02-15T08:41:24;60.40;;;36.27;;
14510;SDS011;7341;50.930;4.038;2023-02-15T08:43:52;66.10;;;37.70;;
14510;SDS011;7341;50.930;4.038;2023-02-15T08:46:20;68.23;;;36.57;;
14510;SDS011;7341;50.930;4.038;2023-02-15T08:48:48;57.93;;;34.87;;
14510;SDS011;7341;50.930;4.038;2023-02-15T08:51:17;58.90;;;35.33;;
14510;SDS011;7341;50.930;4.038;2023-02-15T08:53:45;61.43;;;35.10;;
14510;SDS011;7341;50.930;4.038;2023-02-15T08:56:14;59.23;;;34.10;;
14510;SDS011;7341;50.930;4.038;2023-02-15T08:58:43;55.20;;;33.17;;
14510;SDS011;7341;50.930;4.038;2023-02-15T09:01:13;52.90;;;32.10;;
14510;SDS011;7341;50.930;4.038;2023-02-15T09:03:43;53.57;;;32.17;;
14510;SDS011;7341;50.930;4.038;2023-02-15T09:06:12;51.83;;;32.70;;
14510;SDS011;7341;50.930;4.038;2023-02-15T09:08:43;49.77;;;32.00;;
14510;SDS011;7341;50.930;4.038;2023-02-15T09:11:13;50.17;;;31.87;;
14510;SDS011;7341;50.930;4.038;2023-02-15T09:13:47;52.60;;;31.03;;
14510;SDS011;7341;50.930;4.038;2023-02-15T09:16:16;51.53;;;30.93;;
14510;SDS011;7341;50.930;4.038;2023-02-15T09:18:55;52.43;;;31.50;;
14510;SDS011;7341;50.930;4.038;2023-02-15T09:21:24;50.07;;;31.47;;
14510;SDS011;7341;50.930;4.038;2023-02-15T09:23:55;49.07;;;31.93;;
14510;SDS011;7341;50.930;4.038;2023-02-15T09:26:23;47.80;;;30.00;;
14510;SDS011;7341;50.930;4.038;2023-02-15T09:28:55;46.17;;;31.07;;
14510;SDS011;7341;50.930;4.038;2023-02-15T09:31:26;46.60;;;29.23;;
14510;SDS011;7341;50.930;4.038;2023-02-15T09:33:58;47.33;;;29.77;;
14510;SDS011;7341;50.930;4.038;2023-02-15T09:36:27;50.43;;;30.23;;
14510;SDS011;7341;50.930;4.038;2023-02-15T09:38:59;48.90;;;30.33;;
14510;SDS011;7341;50.930;4.038;2023-02-15T09:41:36;47.13;;;28.40;;
14510;SDS011;7341;50.930;4.038;2023-02-15T09:44:24;44.67;;;28.50;;
14510;SDS011;7341;50.930;4.038;2023-02-15T09:47:06;42.20;;;27.30;;
14510;SDS011;7341;50.930;4.038;2023-02-15T09:49:45;41.03;;;27.57;;
14510;SDS011;7341;50.930;4.038;2023-02-15T09:52:32;43.17;;;27.23;;
14510;SDS011;7341;50.930;4.038;2023-02-15T09:55:21;47.97;;;27.47;;
14510;SDS011;7341;50.930;4.038;2023-02-15T09:58:02;43.33;;;26.20;;
14510;SDS011;7341;50.930;4.038;2023-02-15T10:00:36;42.63;;;27.07;;
14510;SDS011;7341;50.930;4.038;2023-02-15T10:03:16;47.70;;;27.37;;
14510;SDS011;7341;50.930;4.038;2023-02-15T10:05:56;40.37;;;26.47;;
14510;SDS011;7341;50.930;4.038;2023-02-15T10:08:43;50.27;;;26.40;;
14510;SDS011;7341;50.930;4.038;2023-02-15T10:11:31;38.03;;;25.00;;
14510;SDS011;7341;50.930;4.038;2023-02-15T10:14:15;39.27;;;24.80;;
14510;SDS011;7341;50.930;4.038;2023-02-15T10:17:07;39.93;;;24.17;;
14510;SDS011;7341;50.930;4.038;2023-02-15T10:19:46;40.80;;;24.90;;
14510;SDS011;7341;50.930;4.038;2023-02-15T10:22:27;42.67;;;24.10;;
14510;SDS011;7341;50.930;4.038;2023-02-15T10:25:05;43.43;;;25.43;;
14510;SDS011;7341;50.930;4.038;2023-02-15T10:27:44;38.43;;;23.87;;
14510;SDS011;7341;50.930;4.038;2023-02-15T10:30:13;42.37;;;25.03;;
14510;SDS011;7341;50.930;4.038;2023-02-15T10:32:42;36.40;;;25.27;;
14510;SDS011;7341;50.930;4.038;2023-02-15T10:35:20;37.27;;;24.13;;
14510;SDS011;7341;50.930;4.038;2023-02-15T10:38:00;38.33;;;24.17;;
14510;SDS011;7341;50.930;4.038;2023-02-15T10:40:52;47.57;;;23.70;;
14510;SDS011;7341;50.930;4.038;2023-02-15T10:43:38;39.73;;;25.23;;
14510;SDS011;7341;50.930;4.038;2023-02-15T10:46:18;34.27;;;23.30;;
14510;SDS011;7341;50.930;4.038;2023-02-15T10:49:08;41.47;;;30.48;;
14510;SDS011;7341;50.930;4.038;2023-02-15T10:51:51;40.20;;;25.10;;
14510;SDS011;7341;50.930;4.038;2023-02-15T10:54:31;40.27;;;24.80;;
14510;SDS011;7341;50.930;4.038;2023-02-15T10:57:07;41.00;;;26.03;;
14510;SDS011;7341;50.930;4.038;2023-02-15T10:59:49;38.40;;;25.30;;
14510;SDS011;7341;50.930;4.038;2023-02-15T11:02:31;40.63;;;26.40;;
14510;SDS011;7341;50.930;4.038;2023-02-15T11:05:16;39.20;;;24.97;;
14510;SDS011;7341;50.930;4.038;2023-02-15T11:07:54;47.33;;;25.43;;
14510;SDS011;7341;50.930;4.038;2023-02-15T11:10:26;41.03;;;25.63;;
14510;SDS011;7341;50.930;4.038;2023-02-15T11:12:56;38.77;;;25.70;;
14510;SDS011;7341;50.930;4.038;2023-02-15T11:15:29;41.53;;;26.23;;
14510;SDS011;7341;50.930;4.038;2023-02-15T11:18:01;39.17;;;24.63;;
14510;SDS011;7341;50.930;4.038;2023-02-15T11:20:36;38.27;;;25.27;;
14510;SDS011;7341;50.930;4.038;2023-02-15T11:23:09;35.37;;;24.43;;
14510;SDS011;7341;50.930;4.038;2023-02-15T11:25:41;38.17;;;24.97;;
14510;SDS011;7341;50.930;4.038;2023-02-15T11:28:13;37.80;;;24.87;;
14510;SDS011;7341;50.930;4.038;2023-02-15T11:30:47;41.87;;;25.43;;
14510;SDS011;7341;50.930;4.038;2023-02-15T11:33:18;39.73;;;24.80;;
14510;SDS011;7341;50.930;4.038;2023-02-15T11:35:48;45.35;;;32.70;;
14510;SDS011;7341;50.930;4.038;2023-02-15T11:38:20;40.23;;;27.90;;
14510;SDS011;7341;50.930;4.038;2023-02-15T11:40:51;42.30;;;24.80;;
14510;SDS011;7341;50.930;4.038;2023-02-15T11:43:23;36.87;;;25.17;;
14510;SDS011;7341;50.930;4.038;2023-02-15T11:45:57;44.77;;;25.00;;
14510;SDS011;7341;50.930;4.038;2023-02-15T11:48:24;41.00;;;25.80;;
14510;SDS011;7341;50.930;4.038;2023-02-15T11:50:52;36.40;;;25.07;;
14510;SDS011;7341;50.930;4.038;2023-02-15T11:53:19;39.57;;;26.47;;
14510;SDS011;7341;50.930;4.038;2023-02-15T11:55:49;41.93;;;25.73;;
14510;SDS011;7341;50.930;4.038;2023-02-15T11:58:22;35.73;;;25.50;;
14510;SDS011;7341;50.930;4.038;2023-02-15T12:00:55;46.80;;;26.70;;
14510;SDS011;7341;50.930;4.038;2023-02-15T12:03:27;37.70;;;25.10;;
14510;SDS011;7341;50.930;4.038;2023-02-15T12:06:01;37.10;;;24.77;;
14510;SDS011;7341;50.930;4.038;2023-02-15T12:08:34;45.00;;;27.97;;
14510;SDS011;7341;50.930;4.038;2023-02-15T12:11:05;42.47;;;26.00;;
14510;SDS011;7341;50.930;4.038;2023-02-15T12:13:37;39.33;;;26.20;;
14510;SDS011;7341;50.930;4.038;2023-02-15T12:16:22;40.90;;;25.47;;
14510;SDS011;7341;50.930;4.038;2023-02-15T12:18:49;38.07;;;25.07;;
14510;SDS011;7341;50.930;4.038;2023-02-15T12:21:24;42.67;;;26.77;;
14510;SDS011;7341;50.930;4.038;2023-02-15T12:23:53;38.17;;;26.20;;
14510;SDS011;7341;50.930;4.038;2023-02-15T12:26:25;38.87;;;26.40;;
14510;SDS011;7341;50.930;4.038;2023-02-15T12:28:55;37.63;;;25.73;;
14510;SDS011;7341;50.930;4.038;2023-02-15T12:31:28;41.23;;;27.17;;
14510;SDS011;7341;50.930;4.038;2023-02-15T12:34:03;39.20;;;26.33;;
14510;SDS011;7341;50.930;4.038;2023-02-15T12:36:40;38.67;;;26.60;;
14510;SDS011;7341;50.930;4.038;2023-02-15T12:39:18;40.27;;;26.60;;
14510;SDS011;7341;50.930;4.038;2023-02-15T12:41:57;37.83;;;25.73;;
14510;SDS011;7341;50.930;4.038;2023-02-15T12:44:26;39.37;;;25.43;;
14510;SDS011;7341;50.930;4.038;2023-02-15T12:46:57;39.73;;;26.13;;
14510;SDS011;7341;50.930;4.038;2023-02-15T12:49:26;35.53;;;25.77;;
14510;SDS011;7341;50.930;4.038;2023-02-15T12:51:55;44.77;;;27.37;;
14510;SDS011;7341;50.930;4.038;2023-02-15T12:54:28;40.03;;;25.90;;
14510;SDS011;7341;50.930;4.038;2023-02-15T12:57:12;41.17;;;26.77;;
14510;SDS011;7341;50.930;4.038;2023-02-15T12:59:52;42.67;;;26.80;;
14510;SDS011;7341;50.930;4.038;2023-02-15T13:02:23;38.80;;;24.57;;
14510;SDS011;7341;50.930;4.038;2023-02-15T13:04:52;40.53;;;26.80;;
14510;SDS011;7341;50.930;4.038;2023-02-15T13:07:19;42.60;;;27.03;;
14510;SDS011;7341;50.930;4.038;2023-02-15T13:09:47;39.03;;;25.83;;
14510;SDS011;7341;50.930;4.038;2023-02-15T13:12:17;40.17;;;27.43;;
14510;SDS011;7341;50.930;4.038;2023-02-15T13:14:48;43.40;;;26.03;;
14510;SDS011;7341;50.930;4.038;2023-02-15T13:17:17;39.27;;;26.43;;
14510;SDS011;7341;50.930;4.038;2023-02-15T13:19:51;42.00;;;27.83;;
14510;SDS011;7341;50.930;4.038;2023-02-15T13:22:20;41.90;;;26.63;;
14510;SDS011;7341;50.930;4.038;2023-02-15T13:24:51;42.83;;;27.27;;
14510;SDS011;7341;50.930;4.038;2023-02-15T13:27:22;38.13;;;26.00;;
14510;SDS011;7341;50.930;4.038;2023-02-15T13:29:52;35.03;;;24.87;;
14510;SDS011;7341;50.930;4.038;2023-02-15T13:32:27;39.47;;;25.73;;
14510;SDS011;7341;50.930;4.038;2023-02-15T13:34:57;36.73;;;25.13;;
14510;SDS011;7341;50.930;4.038;2023-02-15T13:40:23;37.90;;;26.13;;
14510;SDS011;7341;50.930;4.038;2023-02-15T13:42:54;42.37;;;26.00;;
14510;SDS011;7341;50.930;4.038;2023-02-15T13:45:36;38.43;;;24.20;;
14510;SDS011;7341;50.930;4.038;2023-02-15T13:48:12;40.37;;;25.63;;
14510;SDS011;7341;50.930;4.038;2023-02-15T13:51:00;46.57;;;25.27;;
14510;SDS011;7341;50.930;4.038;2023-02-15T13:53:50;36.50;;;25.43;;
14510;SDS011;7341;50.930;4.038;2023-02-15T13:56:38;39.60;;;26.40;;
14510;SDS011;7341;50.930;4.038;2023-02-15T14:01:58;43.97;;;25.13;;
14510;SDS011;7341;50.930;4.038;2023-02-15T14:04:50;34.03;;;23.27;;
14510;SDS011;7341;50.930;4.038;2023-02-15T14:07:35;44.33;;;25.20;;
14510;SDS011;7341;50.930;4.038;2023-02-15T14:10:20;38.67;;;24.90;;
14510;SDS011;7341;50.930;4.038;2023-02-15T14:12:57;40.80;;;25.90;;
14510;SDS011;7341;50.930;4.038;2023-02-15T14:15:42;35.03;;;23.23;;
14510;SDS011;7341;50.930;4.038;2023-02-15T14:18:15;32.60;;;24.37;;
14510;SDS011;7341;50.930;4.038;2023-02-15T14:20:55;34.77;;;23.63;;
14510;SDS011;7341;50.930;4.038;2023-02-15T14:23:35;51.37;;;24.97;;
14510;SDS011;7341;50.930;4.038;2023-02-15T14:26:12;36.50;;;25.63;;
14510;SDS011;7341;50.930;4.038;2023-02-15T14:28:45;34.83;;;23.90;;
14510;SDS011;7341;50.930;4.038;2023-02-15T14:31:18;36.43;;;25.17;;
14510;SDS011;7341;50.930;4.038;2023-02-15T14:33:55;36.10;;;24.70;;
14510;SDS011;7341;50.930;4.038;2023-02-15T14:36:22;37.27;;;24.93;;
14510;SDS011;7341;50.930;4.038;2023-02-15T14:38:56;37.57;;;25.73;;
14510;SDS011;7341;50.930;4.038;2023-02-15T14:41:53;44.53;;;26.07;;
14510;SDS011;7341;50.930;4.038;2023-02-15T14:44:27;40.97;;;25.20;;
14510;SDS011;7341;50.930;4.038;2023-02-15T14:46:58;36.43;;;25.53;;
14510;SDS011;7341;50.930;4.038;2023-02-15T14:49:30;35.70;;;25.23;;
14510;SDS011;7341;50.930;4.038;2023-02-15T14:52:02;39.70;;;26.70;;
14510;SDS011;7341;50.930;4.038;2023-02-15T14:57:24;34.23;;;24.97;;
14510;SDS011;7341;50.930;4.038;2023-02-15T15:00:02;36.73;;;24.77;;
14510;SDS011;7341;50.930;4.038;2023-02-15T15:02:45;38.93;;;24.83;;
14510;SDS011;7341;50.930;4.038;2023-02-15T15:05:17;39.77;;;25.37;;
14510;SDS011;7341;50.930;4.038;2023-02-15T15:07:46;33.40;;;24.57;;
14510;SDS011;7341;50.930;4.038;2023-02-15T15:19:09;37.27;;;25.20;;
14510;SDS011;7341;50.930;4.038;2023-02-15T15:21:52;36.93;;;24.37;;
14510;SDS011;7341;50.930;4.038;2023-02-15T15:24:45;37.57;;;25.80;;
14510;SDS011;7341;50.930;4.038;2023-02-15T15:46:06;38.83;;;25.47;;